createdAt,value
2023-05-14T00:00:11.254Z,12.14
2023-05-14T00:05:10.268Z,12.24
2023-05-14T00:10:09.458Z,12.29
2023-05-14T00:15:08.950Z,12.23
2023-05-14T00:20:12.188Z,12.14
2023-05-14T00:25:11.241Z,12.37
2023-05-14T00:30:10.641Z,12.42
2023-05-14T00:35:12.502Z,12.36
2023-05-14T00:40:13.075Z,12.21
2023-05-14T00:45:11.870Z,12.19
2023-05-14T00:50:12.240Z,12.40
2023-05-14T00:55:16.409Z,12.01
2023-05-14T01:00:15.750Z,11.88
2023-05-14T01:05:14.755Z,12.37
2023-05-14T01:10:54.983Z,12.63
2023-05-14T01:15:56.711Z,12.57
2023-05-14T01:20:58.569Z,12.08
2023-05-14T01:25:57.310Z,12.04
2023-05-14T01:30:59.174Z,12.44
2023-05-14T01:35:58.641Z,12.18
2023-05-14T01:40:58.571Z,12.05
2023-05-14T01:45:57.428Z,11.99
2023-05-14T01:50:57.204Z,12.11
2023-05-14T01:55:56.174Z,12.30
2023-05-14T02:00:55.006Z,12.31
2023-05-14T02:05:53.831Z,12.01
2023-05-14T02:10:52.740Z,11.58
2023-05-14T02:15:51.818Z,11.77
2023-05-14T02:20:50.584Z,11.40
2023-05-14T02:25:49.371Z,11.73
2023-05-14T02:30:48.365Z,11.51
2023-05-14T02:35:47.128Z,11.54
2023-05-14T02:40:45.891Z,11.37
2023-05-14T02:45:44.726Z,11.43
2023-05-14T02:50:43.968Z,10.93
2023-05-14T02:55:42.969Z,11.04
2023-05-14T03:00:41.763Z,11.11
2023-05-14T03:05:41.054Z,11.16
2023-05-14T03:10:39.796Z,11.03
2023-05-14T03:15:38.686Z,10.84
2023-05-14T03:20:37.964Z,10.86
2023-05-14T03:25:37.967Z,11.28
2023-05-14T03:30:36.943Z,11.23
2023-05-14T03:35:35.920Z,11.21
2023-05-14T03:40:34.874Z,11.29
2023-05-14T03:45:34.087Z,10.96
2023-05-14T03:50:33.073Z,10.78
2023-05-14T03:55:31.904Z,10.86
2023-05-14T04:00:30.952Z,10.52
2023-05-14T04:05:29.692Z,10.35
2023-05-14T04:10:32.269Z,10.33
2023-05-14T04:15:32.312Z,10.65
2023-05-14T04:20:31.200Z,10.84
2023-05-14T04:25:30.521Z,10.79
2023-05-14T04:30:29.758Z,10.88
2023-05-14T04:35:28.835Z,11.32
2023-05-14T04:40:27.835Z,11.74
2023-05-14T04:45:26.845Z,12.00
2023-05-14T04:50:26.125Z,12.17
2023-05-14T04:55:25.044Z,12.52
2023-05-14T05:00:24.187Z,12.53
2023-05-14T05:05:23.858Z,12.51
2023-05-14T05:10:22.988Z,12.81
2023-05-14T05:15:23.291Z,13.34
2023-05-14T05:20:25.122Z,13.85
2023-05-14T05:25:24.211Z,13.67
2023-05-14T05:30:23.258Z,13.61
2023-05-14T05:35:22.202Z,13.64
2023-05-14T05:40:21.114Z,13.77
2023-05-14T05:45:20.004Z,13.87
2023-05-14T05:50:19.956Z,13.91
2023-05-14T05:55:19.235Z,13.64
2023-05-14T06:00:18.988Z,14.58
2023-05-14T06:05:18.896Z,14.94
2023-05-14T06:10:17.934Z,14.91
2023-05-14T06:15:20.116Z,15.40
2023-05-14T06:20:19.339Z,16.02
2023-05-14T06:25:18.553Z,17.47
2023-05-14T06:30:17.375Z,17.69
2023-05-14T06:35:16.225Z,18.10
2023-05-14T06:40:18.083Z,18.19
2023-05-14T06:45:16.967Z,18.38
2023-05-14T06:50:15.798Z,18.17
2023-05-14T06:55:14.673Z,18.32
2023-05-14T07:00:14.607Z,18.40
2023-05-14T07:05:13.556Z,18.17
2023-05-14T07:10:12.797Z,18.55
2023-05-14T07:15:12.321Z,18.59
2023-05-14T07:20:11.629Z,18.50
2023-05-14T07:25:10.567Z,18.69
2023-05-14T07:30:09.627Z,18.44
2023-05-14T07:35:09.106Z,18.51
2023-05-14T07:40:08.498Z,18.27
2023-05-14T07:45:08.890Z,18.47
2023-05-14T07:50:10.695Z,18.47
2023-05-14T07:55:09.893Z,18.19
2023-05-14T08:00:09.273Z,18.46
2023-05-14T08:05:14.254Z,18.75
2023-05-14T08:10:13.048Z,18.74
2023-05-14T08:15:12.435Z,18.55
2023-05-14T08:20:12.061Z,18.10
2023-05-14T08:25:11.084Z,18.19
2023-05-14T08:30:10.322Z,18.15
2023-05-14T08:35:09.372Z,17.99
2023-05-14T08:40:08.835Z,17.92
2023-05-14T08:45:16.953Z,18.55
2023-05-14T08:50:22.701Z,18.78
2023-05-14T08:55:22.597Z,19.02
2023-05-14T09:00:21.701Z,18.64
2023-05-14T09:05:22.147Z,18.81
2023-05-14T09:10:21.559Z,18.78
2023-05-14T09:15:20.552Z,18.81
2023-05-14T09:20:19.848Z,19.22
2023-05-14T09:25:18.601Z,19.63
2023-05-14T09:30:17.760Z,19.78
2023-05-14T09:35:21.749Z,20.39
2023-05-14T09:40:23.653Z,20.90
2023-05-14T09:45:23.296Z,21.10
2023-05-14T09:50:22.303Z,21.06
2023-05-14T09:55:22.142Z,20.57
2023-05-14T10:00:23.219Z,20.46
2023-05-14T10:05:23.640Z,20.07
2023-05-14T10:10:26.872Z,19.57
2023-05-14T10:15:43.638Z,19.42
2023-05-14T10:20:43.229Z,18.93
2023-05-14T10:25:42.528Z,18.82
2023-05-14T10:30:46.290Z,18.82
2023-05-14T10:36:00.511Z,18.68
2023-05-14T10:41:04.404Z,18.80
2023-05-14T10:46:04.317Z,18.61
2023-05-14T10:51:03.312Z,18.87
2023-05-14T10:56:09.288Z,18.77
2023-05-14T11:01:09.233Z,19.30
2023-05-14T11:06:09.356Z,19.54
2023-05-14T11:11:09.694Z,19.40
2023-05-14T11:16:21.547Z,20.08
2023-05-14T11:21:21.805Z,20.59
2023-05-14T11:26:21.725Z,21.08
2023-05-14T11:31:22.359Z,21.12
2023-05-14T11:36:22.020Z,21.41
2023-05-14T11:41:22.879Z,20.60
2023-05-14T11:46:22.519Z,20.99
2023-05-14T11:51:21.597Z,21.16
2023-05-14T11:56:24.641Z,21.15
2023-05-14T12:01:23.768Z,21.04
2023-05-14T12:06:31.552Z,21.07
2023-05-14T12:11:36.055Z,21.34
2023-05-14T12:16:36.815Z,21.07
2023-05-14T12:21:37.681Z,21.28
2023-05-14T12:26:38.715Z,21.41
2023-05-14T12:31:44.788Z,21.48
2023-05-14T12:36:44.350Z,21.72
2023-05-14T12:41:43.104Z,21.80
2023-05-14T12:46:41.970Z,21.64
2023-05-14T12:51:41.033Z,21.89
2023-05-14T12:56:39.882Z,22.01
2023-05-14T13:01:38.832Z,21.10
2023-05-14T13:06:37.841Z,21.48
2023-05-14T13:11:36.596Z,21.52
2023-05-14T13:16:35.693Z,21.38
2023-05-14T13:21:34.603Z,20.91
2023-05-14T13:26:33.639Z,20.76
2023-05-14T13:31:32.563Z,20.39
2023-05-14T13:36:32.317Z,20.39
2023-05-14T13:41:34.936Z,20.13
2023-05-14T13:46:33.848Z,19.86
2023-05-14T13:51:32.731Z,19.71
2023-05-14T13:56:31.632Z,19.72
2023-05-14T14:01:33.400Z,19.54
2023-05-14T14:06:33.269Z,19.32
2023-05-14T14:11:32.140Z,19.48
2023-05-14T14:16:31.179Z,19.71
2023-05-14T14:21:30.035Z,19.64
2023-05-14T14:26:29.289Z,19.78
2023-05-14T14:31:28.204Z,19.79
2023-05-14T14:36:27.000Z,19.99
2023-05-14T14:41:26.662Z,19.86
2023-05-14T14:46:25.499Z,19.71
2023-05-14T14:51:24.543Z,19.53
2023-05-14T14:56:23.667Z,19.56
2023-05-14T15:01:22.966Z,19.86
2023-05-14T15:06:21.758Z,19.81
2023-05-14T15:11:20.929Z,19.69
2023-05-14T15:16:19.755Z,19.63
2023-05-14T15:21:18.591Z,19.46
2023-05-14T15:26:17.388Z,19.54
2023-05-14T15:31:16.504Z,19.73
2023-05-14T15:36:15.390Z,19.74
2023-05-14T15:41:14.387Z,19.66
2023-05-14T15:46:13.279Z,19.39
2023-05-14T15:51:12.730Z,19.33
2023-05-14T15:56:11.656Z,19.35
2023-05-14T16:01:10.519Z,19.30
2023-05-14T16:06:09.999Z,19.09
2023-05-14T16:11:08.825Z,18.92
2023-05-14T16:16:08.348Z,18.66
2023-05-14T16:21:07.180Z,18.01
2023-05-14T16:26:06.459Z,17.84
2023-05-14T16:31:05.253Z,17.43
2023-05-14T16:36:04.126Z,17.22
2023-05-14T16:41:03.308Z,16.83
2023-05-14T16:46:04.806Z,16.78
2023-05-14T16:51:06.863Z,16.72
2023-05-14T16:56:06.718Z,16.89
2023-05-14T17:01:08.694Z,16.83
2023-05-14T17:06:10.092Z,16.36
2023-05-14T17:11:09.245Z,16.45
2023-05-14T17:16:08.240Z,16.51
2023-05-14T17:21:07.565Z,16.64
2023-05-14T17:26:06.505Z,16.47
2023-05-14T17:31:05.454Z,16.49
2023-05-14T17:36:04.440Z,16.63
2023-05-14T17:41:03.200Z,16.63
2023-05-14T17:46:02.162Z,16.36
2023-05-14T17:51:01.180Z,16.35
2023-05-14T17:56:00.152Z,16.41
2023-05-14T18:00:59.093Z,16.07
2023-05-14T18:05:58.798Z,16.03
2023-05-14T18:10:58.600Z,16.16
2023-05-14T18:15:57.625Z,16.15
2023-05-14T18:20:56.596Z,16.29
2023-05-14T18:25:55.787Z,15.76
2023-05-14T18:30:54.605Z,15.72
2023-05-14T18:35:53.697Z,15.74
2023-05-14T18:40:52.567Z,15.85
2023-05-14T18:45:54.493Z,15.76
2023-05-14T18:50:57.652Z,15.79
2023-05-14T18:55:56.563Z,15.61
2023-05-14T19:00:59.073Z,15.53
2023-05-14T19:05:58.176Z,15.48
2023-05-14T19:10:56.946Z,15.43
2023-05-14T19:15:55.996Z,15.16
2023-05-14T19:20:56.628Z,15.18
2023-05-14T19:25:55.568Z,14.86
2023-05-14T19:30:54.500Z,14.69
2023-05-14T19:35:53.479Z,14.92
2023-05-14T19:40:56.876Z,14.81
2023-05-14T19:45:55.736Z,14.79
2023-05-14T19:50:54.515Z,14.54
2023-05-14T19:55:53.252Z,14.26
2023-05-14T20:00:53.341Z,14.03
2023-05-14T20:05:53.395Z,14.06
2023-05-14T20:10:52.366Z,14.21
2023-05-14T20:15:51.406Z,14.11
2023-05-14T20:20:50.200Z,14.18
2023-05-14T20:25:49.009Z,14.24
2023-05-14T20:30:47.833Z,14.15
2023-05-14T20:35:46.623Z,13.85
2023-05-14T20:40:45.585Z,13.99
2023-05-14T20:45:44.352Z,14.07
2023-05-14T20:50:43.532Z,13.94
2023-05-14T20:55:42.428Z,14.10
2023-05-14T21:00:41.279Z,13.99
2023-05-14T21:05:41.560Z,15.53
2023-05-14T21:10:40.412Z,16.35
2023-05-14T21:15:39.371Z,16.72
2023-05-14T21:20:38.254Z,16.34
2023-05-14T21:25:37.043Z,15.00
2023-05-14T21:30:35.763Z,14.02
2023-05-14T21:35:34.538Z,13.87
2023-05-14T21:40:33.260Z,13.89
2023-05-14T21:45:32.260Z,13.06
2023-05-14T21:50:31.247Z,13.07
2023-05-14T21:55:30.059Z,12.71
2023-05-14T22:00:28.962Z,13.03
2023-05-14T22:05:28.076Z,13.07
2023-05-14T22:10:27.012Z,12.85
2023-05-14T22:15:26.211Z,12.77
2023-05-14T22:20:25.334Z,12.91
2023-05-14T22:25:24.679Z,13.25
2023-05-14T22:30:23.837Z,13.25
2023-05-14T22:35:22.815Z,13.08
2023-05-14T22:40:21.855Z,12.90
2023-05-14T22:45:20.624Z,12.85
2023-05-14T22:50:19.324Z,12.37
2023-05-14T22:55:18.171Z,12.56
2023-05-14T23:00:17.191Z,12.84
2023-05-14T23:05:15.942Z,12.75
2023-05-14T23:10:14.825Z,12.89
2023-05-14T23:15:13.754Z,12.40
2023-05-14T23:20:13.001Z,12.31
2023-05-14T23:25:11.769Z,12.67
2023-05-14T23:30:11.006Z,12.95
2023-05-14T23:35:10.395Z,12.49
2023-05-14T23:40:09.866Z,12.64
2023-05-14T23:45:09.041Z,12.62
2023-05-14T23:50:08.506Z,12.47
2023-05-14T23:55:07.671Z,12.43
